sensor_id;sensor_type;location;lat;lon;timestamp;P1;durP1;ratioP1;P2;durP2;ratioP2
43807;SDS011;29438;50.664;10.098;2022-10-31T00:00:21;6.07;;;2.10;;
43807;SDS011;29438;50.664;10.098;2022-10-31T00:02:47;7.85;;;2.33;;
43807;SDS011;29438;50.664;10.098;2022-10-31T00:05:13;5.07;;;1.90;;
43807;SDS011;29438;50.664;10.098;2022-10-31T00:07:39;6.13;;;2.05;;
43807;SDS011;29438;50.664;10.098;2022-10-31T00:10:04;4.70;;;2.00;;
43807;SDS011;29438;50.664;10.098;2022-10-31T00:12:30;5.22;;;1.80;;
43807;SDS011;29438;50.664;10.098;2022-10-31T00:14:56;4.05;;;1.88;;
43807;SDS011;29438;50.664;10.098;2022-10-31T00:17:22;5.30;;;1.90;;
43807;SDS011;29438;50.664;10.098;2022-10-31T00:19:47;5.80;;;1.83;;
43807;SDS011;29438;50.664;10.098;2022-10-31T00:22:13;4.05;;;2.05;;
43807;SDS011;29438;50.664;10.098;2022-10-31T00:24:38;5.18;;;1.98;;
43807;SDS011;29438;50.664;10.098;2022-10-31T00:27:04;8.88;;;2.30;;
43807;SDS011;29438;50.664;10.098;2022-10-31T00:29:29;6.63;;;2.03;;
43807;SDS011;29438;50.664;10.098;2022-10-31T00:31:55;4.60;;;1.98;;
43807;SDS011;29438;50.664;10.098;2022-10-31T00:34:20;7.53;;;1.92;;
43807;SDS011;29438;50.664;10.098;2022-10-31T00:36:46;6.55;;;2.35;;
43807;SDS011;29438;50.664;10.098;2022-10-31T00:39:11;5.85;;;2.38;;
43807;SDS011;29438;50.664;10.098;2022-10-31T00:41:37;6.50;;;2.60;;
43807;SDS011;29438;50.664;10.098;2022-10-31T00:44:02;4.88;;;2.20;;
43807;SDS011;29438;50.664;10.098;2022-10-31T00:46:28;7.10;;;2.30;;
43807;SDS011;29438;50.664;10.098;2022-10-31T00:48:54;7.07;;;2.65;;
43807;SDS011;29438;50.664;10.098;2022-10-31T00:51:19;7.45;;;2.50;;
43807;SDS011;29438;50.664;10.098;2022-10-31T00:53:45;5.57;;;2.35;;
43807;SDS011;29438;50.664;10.098;2022-10-31T00:56:10;8.93;;;2.60;;
43807;SDS011;29438;50.664;10.098;2022-10-31T00:58:36;7.10;;;2.38;;
43807;SDS011;29438;50.664;10.098;2022-10-31T01:01:02;6.00;;;2.45;;
43807;SDS011;29438;50.664;10.098;2022-10-31T01:03:29;7.35;;;2.63;;
43807;SDS011;29438;50.664;10.098;2022-10-31T01:06:00;6.22;;;2.50;;
43807;SDS011;29438;50.664;10.098;2022-10-31T01:08:31;7.95;;;2.78;;
43807;SDS011;29438;50.664;10.098;2022-10-31T01:11:18;6.57;;;2.45;;
43807;SDS011;29438;50.664;10.098;2022-10-31T01:13:45;5.60;;;2.50;;
43807;SDS011;29438;50.664;10.098;2022-10-31T01:16:13;6.32;;;2.90;;
43807;SDS011;29438;50.664;10.098;2022-10-31T01:18:41;6.75;;;2.90;;
43807;SDS011;29438;50.664;10.098;2022-10-31T01:21:11;7.97;;;2.65;;
43807;SDS011;29438;50.664;10.098;2022-10-31T01:23:41;7.95;;;2.72;;
43807;SDS011;29438;50.664;10.098;2022-10-31T01:26:20;6.13;;;2.50;;
43807;SDS011;29438;50.664;10.098;2022-10-31T01:28:51;7.35;;;2.20;;
43807;SDS011;29438;50.664;10.098;2022-10-31T01:31:22;6.07;;;2.22;;
43807;SDS011;29438;50.664;10.098;2022-10-31T01:33:50;5.65;;;2.38;;
43807;SDS011;29438;50.664;10.098;2022-10-31T01:38:46;8.02;;;2.40;;
43807;SDS011;29438;50.664;10.098;2022-10-31T01:41:13;5.70;;;2.33;;
43807;SDS011;29438;50.664;10.098;2022-10-31T01:43:52;9.32;;;2.85;;
43807;SDS011;29438;50.664;10.098;2022-10-31T01:46:24;6.38;;;2.70;;
43807;SDS011;29438;50.664;10.098;2022-10-31T01:48:51;7.90;;;2.55;;
43807;SDS011;29438;50.664;10.098;2022-10-31T01:51:19;8.65;;;2.35;;
43807;SDS011;29438;50.664;10.098;2022-10-31T01:53:48;7.28;;;2.58;;
43807;SDS011;29438;50.664;10.098;2022-10-31T01:56:17;8.07;;;2.72;;
43807;SDS011;29438;50.664;10.098;2022-10-31T01:58:44;9.68;;;2.80;;
43807;SDS011;29438;50.664;10.098;2022-10-31T02:01:11;7.35;;;2.58;;
43807;SDS011;29438;50.664;10.098;2022-10-31T02:03:39;6.90;;;2.72;;
43807;SDS011;29438;50.664;10.098;2022-10-31T02:06:06;6.43;;;2.45;;
43807;SDS011;29438;50.664;10.098;2022-10-31T02:08:37;7.63;;;2.90;;
43807;SDS011;29438;50.664;10.098;2022-10-31T02:11:05;5.82;;;2.30;;
43807;SDS011;29438;50.664;10.098;2022-10-31T02:13:32;9.27;;;3.03;;
43807;SDS011;29438;50.664;10.098;2022-10-31T02:15:59;5.95;;;3.00;;
43807;SDS011;29438;50.664;10.098;2022-10-31T02:18:25;7.45;;;3.03;;
43807;SDS011;29438;50.664;10.098;2022-10-31T02:21:04;8.88;;;2.78;;
43807;SDS011;29438;50.664;10.098;2022-10-31T02:32:25;6.13;;;2.63;;
43807;SDS011;29438;50.664;10.098;2022-10-31T02:38:05;7.70;;;2.55;;
43807;SDS011;29438;50.664;10.098;2022-10-31T02:41:01;4.18;;;1.88;;
43807;SDS011;29438;50.664;10.098;2022-10-31T02:43:36;11.50;;;2.42;;
43807;SDS011;29438;50.664;10.098;2022-10-31T02:46:14;6.07;;;2.25;;
43807;SDS011;29438;50.664;10.098;2022-10-31T02:48:53;7.70;;;2.72;;
43807;SDS011;29438;50.664;10.098;2022-10-31T02:51:22;7.82;;;2.72;;
43807;SDS011;29438;50.664;10.098;2022-10-31T02:53:48;6.10;;;2.78;;
43807;SDS011;29438;50.664;10.098;2022-10-31T02:56:17;7.65;;;2.88;;
43807;SDS011;29438;50.664;10.098;2022-10-31T02:59:16;6.25;;;2.47;;
43807;SDS011;29438;50.664;10.098;2022-10-31T03:09:40;9.20;;;2.80;;
43807;SDS011;29438;50.664;10.098;2022-10-31T03:12:30;8.68;;;2.65;;
43807;SDS011;29438;50.664;10.098;2022-10-31T03:15:11;6.75;;;2.60;;
43807;SDS011;29438;50.664;10.098;2022-10-31T03:17:41;5.97;;;2.33;;
43807;SDS011;29438;50.664;10.098;2022-10-31T03:20:24;8.50;;;2.83;;
43807;SDS011;29438;50.664;10.098;2022-10-31T03:22:58;8.80;;;2.97;;
43807;SDS011;29438;50.664;10.098;2022-10-31T03:25:25;7.93;;;2.58;;
43807;SDS011;29438;50.664;10.098;2022-10-31T03:27:52;6.90;;;3.20;;
43807;SDS011;29438;50.664;10.098;2022-10-31T03:30:18;8.48;;;2.70;;
43807;SDS011;29438;50.664;10.098;2022-10-31T03:32:48;9.93;;;3.42;;
43807;SDS011;29438;50.664;10.098;2022-10-31T03:35:18;6.93;;;2.70;;
43807;SDS011;29438;50.664;10.098;2022-10-31T03:37:47;6.88;;;3.05;;
43807;SDS011;29438;50.664;10.098;2022-10-31T03:40:14;6.13;;;3.00;;
43807;SDS011;29438;50.664;10.098;2022-10-31T03:42:43;8.05;;;3.45;;
43807;SDS011;29438;50.664;10.098;2022-10-31T03:45:17;9.13;;;2.75;;
43807;SDS011;29438;50.664;10.098;2022-10-31T03:47:47;8.07;;;2.95;;
43807;SDS011;29438;50.664;10.098;2022-10-31T03:50:14;12.40;;;3.05;;
43807;SDS011;29438;50.664;10.098;2022-10-31T03:52:53;8.95;;;3.13;;
43807;SDS011;29438;50.664;10.098;2022-10-31T03:55:32;9.68;;;3.13;;
43807;SDS011;29438;50.664;10.098;2022-10-31T03:58:07;7.55;;;3.20;;
43807;SDS011;29438;50.664;10.098;2022-10-31T04:00:37;7.68;;;3.55;;
43807;SDS011;29438;50.664;10.098;2022-10-31T04:03:09;8.85;;;3.30;;
43807;SDS011;29438;50.664;10.098;2022-10-31T04:05:37;8.57;;;3.15;;
43807;SDS011;29438;50.664;10.098;2022-10-31T04:08:04;8.40;;;3.00;;
43807;SDS011;29438;50.664;10.098;2022-10-31T04:10:34;8.73;;;3.53;;
43807;SDS011;29438;50.664;10.098;2022-10-31T04:13:10;8.52;;;3.08;;
43807;SDS011;29438;50.664;10.098;2022-10-31T04:15:38;8.90;;;3.47;;
43807;SDS011;29438;50.664;10.098;2022-10-31T04:18:05;10.02;;;3.40;;
43807;SDS011;29438;50.664;10.098;2022-10-31T04:20:32;10.30;;;3.38;;
43807;SDS011;29438;50.664;10.098;2022-10-31T04:22:59;8.50;;;2.88;;
43807;SDS011;29438;50.664;10.098;2022-10-31T04:25:25;7.68;;;3.15;;
43807;SDS011;29438;50.664;10.098;2022-10-31T04:27:51;9.48;;;3.53;;
43807;SDS011;29438;50.664;10.098;2022-10-31T04:30:16;10.45;;;3.53;;
43807;SDS011;29438;50.664;10.098;2022-10-31T04:32:42;6.95;;;3.05;;
43807;SDS011;29438;50.664;10.098;2022-10-31T04:35:08;10.35;;;3.30;;
43807;SDS011;29438;50.664;10.098;2022-10-31T04:37:33;7.60;;;3.22;;
43807;SDS011;29438;50.664;10.098;2022-10-31T04:39:59;9.82;;;3.70;;
43807;SDS011;29438;50.664;10.098;2022-10-31T04:42:24;8.50;;;3.58;;
43807;SDS011;29438;50.664;10.098;2022-10-31T04:44:50;10.13;;;3.30;;
43807;SDS011;29438;50.664;10.098;2022-10-31T04:47:15;8.10;;;3.30;;
43807;SDS011;29438;50.664;10.098;2022-10-31T04:49:41;9.10;;;3.20;;
43807;SDS011;29438;50.664;10.098;2022-10-31T04:52:06;11.55;;;4.85;;
43807;SDS011;29438;50.664;10.098;2022-10-31T04:54:33;10.95;;;5.78;;
43807;SDS011;29438;50.664;10.098;2022-10-31T04:56:58;13.52;;;4.90;;
43807;SDS011;29438;50.664;10.098;2022-10-31T04:59:24;10.13;;;4.25;;
43807;SDS011;29438;50.664;10.098;2022-10-31T05:01:52;14.70;;;6.35;;
43807;SDS011;29438;50.664;10.098;2022-10-31T05:04:18;12.18;;;5.22;;
43807;SDS011;29438;50.664;10.098;2022-10-31T05:06:43;11.13;;;5.13;;
43807;SDS011;29438;50.664;10.098;2022-10-31T05:09:09;11.07;;;3.88;;
43807;SDS011;29438;50.664;10.098;2022-10-31T05:11:34;13.18;;;3.88;;
43807;SDS011;29438;50.664;10.098;2022-10-31T05:14:00;10.90;;;3.72;;
43807;SDS011;29438;50.664;10.098;2022-10-31T05:16:25;11.80;;;3.28;;
43807;SDS011;29438;50.664;10.098;2022-10-31T05:18:51;11.07;;;3.78;;
43807;SDS011;29438;50.664;10.098;2022-10-31T05:21:16;8.18;;;3.70;;
43807;SDS011;29438;50.664;10.098;2022-10-31T05:23:42;9.23;;;3.72;;
43807;SDS011;29438;50.664;10.098;2022-10-31T05:26:07;7.95;;;2.92;;
43807;SDS011;29438;50.664;10.098;2022-10-31T05:28:33;8.27;;;3.00;;
43807;SDS011;29438;50.664;10.098;2022-10-31T05:30:58;6.70;;;2.90;;
43807;SDS011;29438;50.664;10.098;2022-10-31T05:33:24;9.13;;;3.28;;
43807;SDS011;29438;50.664;10.098;2022-10-31T05:35:50;8.15;;;2.90;;
43807;SDS011;29438;50.664;10.098;2022-10-31T05:38:15;7.53;;;3.03;;
43807;SDS011;29438;50.664;10.098;2022-10-31T05:40:41;10.20;;;3.35;;
43807;SDS011;29438;50.664;10.098;2022-10-31T05:43:06;11.95;;;3.45;;
43807;SDS011;29438;50.664;10.098;2022-10-31T05:45:32;12.45;;;3.50;;
43807;SDS011;29438;50.664;10.098;2022-10-31T05:47:58;10.32;;;3.50;;
43807;SDS011;29438;50.664;10.098;2022-10-31T05:50:26;8.13;;;3.40;;
43807;SDS011;29438;50.664;10.098;2022-10-31T05:53:03;8.57;;;3.47;;
43807;SDS011;29438;50.664;10.098;2022-10-31T05:55:29;9.40;;;3.45;;
43807;SDS011;29438;50.664;10.098;2022-10-31T05:57:56;6.97;;;3.00;;
43807;SDS011;29438;50.664;10.098;2022-10-31T06:00:22;12.88;;;3.65;;
43807;SDS011;29438;50.664;10.098;2022-10-31T06:02:53;6.88;;;3.03;;
43807;SDS011;29438;50.664;10.098;2022-10-31T06:05:26;7.03;;;2.78;;
43807;SDS011;29438;50.664;10.098;2022-10-31T06:07:51;8.82;;;3.05;;
43807;SDS011;29438;50.664;10.098;2022-10-31T06:10:17;6.97;;;2.63;;
43807;SDS011;29438;50.664;10.098;2022-10-31T06:12:45;8.43;;;3.03;;
43807;SDS011;29438;50.664;10.098;2022-10-31T06:15:12;9.30;;;2.80;;
43807;SDS011;29438;50.664;10.098;2022-10-31T06:17:38;9.77;;;3.70;;
43807;SDS011;29438;50.664;10.098;2022-10-31T06:20:04;8.85;;;3.53;;
43807;SDS011;29438;50.664;10.098;2022-10-31T06:22:30;12.27;;;4.25;;
43807;SDS011;29438;50.664;10.098;2022-10-31T06:24:56;9.20;;;4.05;;
43807;SDS011;29438;50.664;10.098;2022-10-31T06:27:21;9.13;;;3.65;;
43807;SDS011;29438;50.664;10.098;2022-10-31T06:29:47;8.07;;;3.95;;
43807;SDS011;29438;50.664;10.098;2022-10-31T06:32:13;8.18;;;3.55;;
43807;SDS011;29438;50.664;10.098;2022-10-31T06:34:39;9.50;;;3.30;;
43807;SDS011;29438;50.664;10.098;2022-10-31T06:37:09;9.32;;;3.22;;
43807;SDS011;29438;50.664;10.098;2022-10-31T06:39:36;12.75;;;3.20;;
43807;SDS011;29438;50.664;10.098;2022-10-31T06:42:02;7.30;;;3.05;;
43807;SDS011;29438;50.664;10.098;2022-10-31T06:44:28;7.95;;;2.78;;
43807;SDS011;29438;50.664;10.098;2022-10-31T06:46:55;7.03;;;3.10;;
43807;SDS011;29438;50.664;10.098;2022-10-31T06:49:21;11.10;;;4.43;;
43807;SDS011;29438;50.664;10.098;2022-10-31T06:51:47;11.45;;;4.80;;
43807;SDS011;29438;50.664;10.098;2022-10-31T06:54:13;11.65;;;4.55;;
43807;SDS011;29438;50.664;10.098;2022-10-31T06:56:39;12.35;;;4.95;;
43807;SDS011;29438;50.664;10.098;2022-10-31T06:59:07;9.40;;;3.88;;
43807;SDS011;29438;50.664;10.098;2022-10-31T07:01:32;14.35;;;3.90;;
43807;SDS011;29438;50.664;10.098;2022-10-31T07:03:58;9.82;;;3.28;;
43807;SDS011;29438;50.664;10.098;2022-10-31T07:06:23;13.98;;;5.10;;
43807;SDS011;29438;50.664;10.098;2022-10-31T07:08:49;11.50;;;4.30;;
43807;SDS011;29438;50.664;10.098;2022-10-31T07:11:15;8.57;;;3.85;;
43807;SDS011;29438;50.664;10.098;2022-10-31T07:13:40;12.13;;;4.78;;
43807;SDS011;29438;50.664;10.098;2022-10-31T07:16:06;10.27;;;4.75;;
43807;SDS011;29438;50.664;10.098;2022-10-31T07:18:32;13.20;;;4.97;;
43807;SDS011;29438;50.664;10.098;2022-10-31T07:20:59;8.57;;;3.97;;
43807;SDS011;29438;50.664;10.098;2022-10-31T07:23:24;8.65;;;4.03;;
43807;SDS011;29438;50.664;10.098;2022-10-31T07:25:54;13.13;;;4.57;;
43807;SDS011;29438;50.664;10.098;2022-10-31T07:28:24;22.67;;;8.63;;
43807;SDS011;29438;50.664;10.098;2022-10-31T07:30:54;21.23;;;8.30;;
43807;SDS011;29438;50.664;10.098;2022-10-31T07:33:21;17.88;;;5.95;;
43807;SDS011;29438;50.664;10.098;2022-10-31T07:35:47;11.95;;;4.82;;
43807;SDS011;29438;50.664;10.098;2022-10-31T07:38:13;18.52;;;6.93;;
43807;SDS011;29438;50.664;10.098;2022-10-31T07:40:40;16.38;;;6.07;;
43807;SDS011;29438;50.664;10.098;2022-10-31T07:43:06;12.98;;;5.70;;
43807;SDS011;29438;50.664;10.098;2022-10-31T07:45:32;11.90;;;4.78;;
43807;SDS011;29438;50.664;10.098;2022-10-31T07:47:58;13.77;;;5.40;;
43807;SDS011;29438;50.664;10.098;2022-10-31T07:50:26;13.45;;;5.30;;
43807;SDS011;29438;50.664;10.098;2022-10-31T07:53:01;11.00;;;4.53;;
43807;SDS011;29438;50.664;10.098;2022-10-31T07:55:28;8.95;;;4.50;;
43807;SDS011;29438;50.664;10.098;2022-10-31T07:58:04;10.55;;;4.07;;
43807;SDS011;29438;50.664;10.098;2022-10-31T08:00:35;10.82;;;4.45;;
43807;SDS011;29438;50.664;10.098;2022-10-31T08:03:03;8.70;;;4.10;;
43807;SDS011;29438;50.664;10.098;2022-10-31T08:05:30;11.48;;;4.35;;
43807;SDS011;29438;50.664;10.098;2022-10-31T08:07:56;10.82;;;4.25;;
43807;SDS011;29438;50.664;10.098;2022-10-31T08:10:22;8.20;;;3.70;;
43807;SDS011;29438;50.664;10.098;2022-10-31T08:12:56;8.15;;;4.07;;
43807;SDS011;29438;50.664;10.098;2022-10-31T08:15:25;8.07;;;3.35;;
43807;SDS011;29438;50.664;10.098;2022-10-31T08:17:51;7.60;;;3.28;;
43807;SDS011;29438;50.664;10.098;2022-10-31T08:20:17;8.02;;;3.55;;
43807;SDS011;29438;50.664;10.098;2022-10-31T08:22:43;7.57;;;3.42;;
43807;SDS011;29438;50.664;10.098;2022-10-31T08:25:21;8.93;;;3.80;;
43807;SDS011;29438;50.664;10.098;2022-10-31T08:27:53;7.13;;;3.55;;
43807;SDS011;29438;50.664;10.098;2022-10-31T08:30:21;6.25;;;3.20;;
43807;SDS011;29438;50.664;10.098;2022-10-31T08:32:56;11.57;;;4.18;;
43807;SDS011;29438;50.664;10.098;2022-10-31T08:35:28;9.60;;;3.75;;
43807;SDS011;29438;50.664;10.098;2022-10-31T08:37:54;8.98;;;3.90;;
43807;SDS011;29438;50.664;10.098;2022-10-31T08:40:20;10.38;;;4.15;;
43807;SDS011;29438;50.664;10.098;2022-10-31T08:42:46;8.65;;;4.20;;
43807;SDS011;29438;50.664;10.098;2022-10-31T08:45:12;6.93;;;3.08;;
43807;SDS011;29438;50.664;10.098;2022-10-31T08:47:38;7.40;;;2.80;;
43807;SDS011;29438;50.664;10.098;2022-10-31T08:50:03;6.90;;;2.45;;
43807;SDS011;29438;50.664;10.098;2022-10-31T08:52:29;6.72;;;2.50;;
43807;SDS011;29438;50.664;10.098;2022-10-31T08:54:57;6.20;;;2.30;;
43807;SDS011;29438;50.664;10.098;2022-10-31T08:57:22;5.30;;;2.65;;
43807;SDS011;29438;50.664;10.098;2022-10-31T08:59:48;6.18;;;2.08;;
43807;SDS011;29438;50.664;10.098;2022-10-31T09:02:13;5.95;;;2.33;;
43807;SDS011;29438;50.664;10.098;2022-10-31T09:04:39;5.40;;;2.30;;
43807;SDS011;29438;50.664;10.098;2022-10-31T09:07:05;6.38;;;2.58;;
43807;SDS011;29438;50.664;10.098;2022-10-31T09:09:30;6.20;;;2.45;;
43807;SDS011;29438;50.664;10.098;2022-10-31T09:11:56;6.43;;;2.40;;
43807;SDS011;29438;50.664;10.098;2022-10-31T09:14:21;4.65;;;2.50;;
43807;SDS011;29438;50.664;10.098;2022-10-31T09:16:47;6.35;;;2.10;;
43807;SDS011;29438;50.664;10.098;2022-10-31T09:19:12;4.53;;;2.08;;
43807;SDS011;29438;50.664;10.098;2022-10-31T09:21:38;7.40;;;2.45;;
43807;SDS011;29438;50.664;10.098;2022-10-31T09:24:03;5.32;;;2.00;;
43807;SDS011;29438;50.664;10.098;2022-10-31T09:26:29;5.53;;;2.30;;
43807;SDS011;29438;50.664;10.098;2022-10-31T09:28:55;7.78;;;2.30;;
43807;SDS011;29438;50.664;10.098;2022-10-31T09:31:22;8.00;;;2.42;;
43807;SDS011;29438;50.664;10.098;2022-10-31T09:33:48;4.95;;;2.13;;
43807;SDS011;29438;50.664;10.098;2022-10-31T09:36:13;4.95;;;2.33;;
43807;SDS011;29438;50.664;10.098;2022-10-31T09:38:39;5.00;;;2.13;;
43807;SDS011;29438;50.664;10.098;2022-10-31T09:43:36;5.22;;;2.25;;
43807;SDS011;29438;50.664;10.098;2022-10-31T09:51:18;5.95;;;2.60;;
43807;SDS011;29438;50.664;10.098;2022-10-31T09:56:42;5.78;;;2.40;;
43807;SDS011;29438;50.664;10.098;2022-10-31T09:59:11;6.53;;;2.63;;
43807;SDS011;29438;50.664;10.098;2022-10-31T10:09:51;7.25;;;1.80;;
43807;SDS011;29438;50.664;10.098;2022-10-31T10:17:57;4.68;;;1.90;;
43807;SDS011;29438;50.664;10.098;2022-10-31T10:20:38;4.75;;;2.08;;
43807;SDS011;29438;50.664;10.098;2022-10-31T10:23:36;6.00;;;1.58;;
43807;SDS011;29438;50.664;10.098;2022-10-31T10:26:58;5.65;;;1.80;;
43807;SDS011;29438;50.664;10.098;2022-10-31T10:29:29;5.82;;;1.55;;
43807;SDS011;29438;50.664;10.098;2022-10-31T10:31:57;5.70;;;1.50;;
43807;SDS011;29438;50.664;10.098;2022-10-31T10:34:30;4.70;;;1.58;;
43807;SDS011;29438;50.664;10.098;2022-10-31T10:39:45;8.50;;;2.00;;
43807;SDS011;29438;50.664;10.098;2022-10-31T10:42:15;4.68;;;1.52;;
43807;SDS011;29438;50.664;10.098;2022-10-31T10:45:00;5.75;;;1.80;;
43807;SDS011;29438;50.664;10.098;2022-10-31T10:47:59;6.10;;;1.50;;
43807;SDS011;29438;50.664;10.098;2022-10-31T10:50:41;5.20;;;1.65;;
43807;SDS011;29438;50.664;10.098;2022-10-31T10:58:36;5.15;;;1.80;;
43807;SDS011;29438;50.664;10.098;2022-10-31T11:01:08;4.10;;;1.73;;
43807;SDS011;29438;50.664;10.098;2022-10-31T11:03:39;5.75;;;2.05;;
43807;SDS011;29438;50.664;10.098;2022-10-31T11:06:15;5.32;;;1.70;;
43807;SDS011;29438;50.664;10.098;2022-10-31T11:08:49;6.30;;;1.60;;
43807;SDS011;29438;50.664;10.098;2022-10-31T11:11:28;5.18;;;1.95;;
43807;SDS011;29438;50.664;10.098;2022-10-31T11:14:03;6.38;;;1.98;;
43807;SDS011;29438;50.664;10.098;2022-10-31T11:16:38;5.50;;;2.05;;
43807;SDS011;29438;50.664;10.098;2022-10-31T11:19:07;6.47;;;1.98;;
43807;SDS011;29438;50.664;10.098;2022-10-31T11:21:43;5.90;;;2.00;;
43807;SDS011;29438;50.664;10.098;2022-10-31T11:26:36;5.68;;;1.65;;
43807;SDS011;29438;50.664;10.098;2022-10-31T11:29:03;8.77;;;2.65;;
43807;SDS011;29438;50.664;10.098;2022-10-31T11:31:30;6.88;;;1.95;;
43807;SDS011;29438;50.664;10.098;2022-10-31T11:33:58;5.93;;;2.22;;
43807;SDS011;29438;50.664;10.098;2022-10-31T11:36:34;8.35;;;2.30;;
43807;SDS011;29438;50.664;10.098;2022-10-31T11:39:04;7.10;;;2.00;;
43807;SDS011;29438;50.664;10.098;2022-10-31T11:41:37;5.03;;;1.90;;
43807;SDS011;29438;50.664;10.098;2022-10-31T11:46:41;5.57;;;1.80;;
43807;SDS011;29438;50.664;10.098;2022-10-31T11:49:43;6.50;;;1.77;;
43807;SDS011;29438;50.664;10.098;2022-10-31T11:52:17;5.90;;;1.88;;
43807;SDS011;29438;50.664;10.098;2022-10-31T11:55:00;6.63;;;1.80;;
43807;SDS011;29438;50.664;10.098;2022-10-31T11:57:44;5.47;;;1.65;;
43807;SDS011;29438;50.664;10.098;2022-10-31T12:05:44;5.53;;;1.80;;
43807;SDS011;29438;50.664;10.098;2022-10-31T12:08:12;3.83;;;2.00;;
43807;SDS011;29438;50.664;10.098;2022-10-31T12:10:48;4.55;;;1.98;;
43807;SDS011;29438;50.664;10.098;2022-10-31T12:13:25;5.90;;;2.30;;
43807;SDS011;29438;50.664;10.098;2022-10-31T12:16:08;5.43;;;1.95;;
43807;SDS011;29438;50.664;10.098;2022-10-31T12:23:56;6.47;;;1.77;;
43807;SDS011;29438;50.664;10.098;2022-10-31T12:26:40;4.43;;;2.00;;
43807;SDS011;29438;50.664;10.098;2022-10-31T12:50:50;6.75;;;2.35;;
43807;SDS011;29438;50.664;10.098;2022-10-31T12:53:23;6.82;;;2.33;;
43807;SDS011;29438;50.664;10.098;2022-10-31T13:01:55;6.38;;;2.15;;
43807;SDS011;29438;50.664;10.098;2022-10-31T13:04:41;5.30;;;2.10;;
43807;SDS011;29438;50.664;10.098;2022-10-31T13:07:34;8.05;;;2.20;;
43807;SDS011;29438;50.664;10.098;2022-10-31T13:10:22;8.27;;;2.40;;
43807;SDS011;29438;50.664;10.098;2022-10-31T13:12:55;6.75;;;2.05;;
43807;SDS011;29438;50.664;10.098;2022-10-31T13:15:26;6.13;;;2.20;;
43807;SDS011;29438;50.664;10.098;2022-10-31T13:17:57;5.45;;;1.95;;
43807;SDS011;29438;50.664;10.098;2022-10-31T13:20:30;5.93;;;2.42;;
43807;SDS011;29438;50.664;10.098;2022-10-31T13:25:54;4.90;;;1.90;;
43807;SDS011;29438;50.664;10.098;2022-10-31T13:30:47;7.25;;;2.45;;
43807;SDS011;29438;50.664;10.098;2022-10-31T13:33:15;5.20;;;2.00;;
43807;SDS011;29438;50.664;10.098;2022-10-31T13:41:34;6.05;;;2.10;;
43807;SDS011;29438;50.664;10.098;2022-10-31T13:44:18;6.78;;;1.90;;
43807;SDS011;29438;50.664;10.098;2022-10-31T13:46:52;5.28;;;2.30;;
43807;SDS011;29438;50.664;10.098;2022-10-31T13:49:21;6.30;;;2.63;;
43807;SDS011;29438;50.664;10.098;2022-10-31T13:51:48;5.05;;;2.10;;
43807;SDS011;29438;50.664;10.098;2022-10-31T13:54:21;7.32;;;2.05;;
43807;SDS011;29438;50.664;10.098;2022-10-31T13:56:51;4.20;;;1.92;;
43807;SDS011;29438;50.664;10.098;2022-10-31T13:59:21;5.65;;;2.13;;
43807;SDS011;29438;50.664;10.098;2022-10-31T14:01:53;5.68;;;2.10;;
43807;SDS011;29438;50.664;10.098;2022-10-31T14:04:24;7.18;;;2.30;;
43807;SDS011;29438;50.664;10.098;2022-10-31T14:07:09;5.15;;;2.00;;
43807;SDS011;29438;50.664;10.098;2022-10-31T14:09:38;6.72;;;2.10;;
43807;SDS011;29438;50.664;10.098;2022-10-31T14:12:21;6.32;;;2.13;;
43807;SDS011;29438;50.664;10.098;2022-10-31T14:14:48;6.82;;;2.00;;
43807;SDS011;29438;50.664;10.098;2022-10-31T14:17:17;7.43;;;2.15;;
43807;SDS011;29438;50.664;10.098;2022-10-31T14:22:36;6.50;;;2.10;;
43807;SDS011;29438;50.664;10.098;2022-10-31T14:27:50;5.40;;;2.42;;
43807;SDS011;29438;50.664;10.098;2022-10-31T14:30:18;8.60;;;2.15;;
43807;SDS011;29438;50.664;10.098;2022-10-31T14:33:09;6.00;;;2.17;;
43807;SDS011;29438;50.664;10.098;2022-10-31T14:35:49;7.35;;;2.40;;
43807;SDS011;29438;50.664;10.098;2022-10-31T14:41:38;6.60;;;2.70;;
43807;SDS011;29438;50.664;10.098;2022-10-31T14:47:25;6.40;;;2.20;;
43807;SDS011;29438;50.664;10.098;2022-10-31T14:52:44;7.45;;;2.92;;
43807;SDS011;29438;50.664;10.098;2022-10-31T14:55:14;5.32;;;2.20;;
43807;SDS011;29438;50.664;10.098;2022-10-31T14:57:44;4.82;;;2.13;;
43807;SDS011;29438;50.664;10.098;2022-10-31T15:00:18;9.00;;;2.45;;
43807;SDS011;29438;50.664;10.098;2022-10-31T15:05:14;5.30;;;2.05;;
43807;SDS011;29438;50.664;10.098;2022-10-31T15:07:51;6.38;;;2.17;;
43807;SDS011;29438;50.664;10.098;2022-10-31T15:10:20;4.93;;;2.17;;
43807;SDS011;29438;50.664;10.098;2022-10-31T15:12:54;6.97;;;2.03;;
43807;SDS011;29438;50.664;10.098;2022-10-31T15:15:21;5.78;;;2.20;;
43807;SDS011;29438;50.664;10.098;2022-10-31T15:17:56;6.28;;;2.22;;
43807;SDS011;29438;50.664;10.098;2022-10-31T15:20:28;6.65;;;2.45;;
43807;SDS011;29438;50.664;10.098;2022-10-31T15:22:55;5.50;;;2.63;;
43807;SDS011;29438;50.664;10.098;2022-10-31T15:25:23;10.95;;;2.90;;
43807;SDS011;29438;50.664;10.098;2022-10-31T15:27:53;8.00;;;2.60;;
43807;SDS011;29438;50.664;10.098;2022-10-31T15:30:22;9.55;;;2.97;;
43807;SDS011;29438;50.664;10.098;2022-10-31T15:32:50;6.82;;;2.65;;
43807;SDS011;29438;50.664;10.098;2022-10-31T15:35:23;6.95;;;2.63;;
43807;SDS011;29438;50.664;10.098;2022-10-31T15:37:51;4.78;;;2.40;;
43807;SDS011;29438;50.664;10.098;2022-10-31T15:40:18;7.63;;;3.10;;
43807;SDS011;29438;50.664;10.098;2022-10-31T15:42:49;8.93;;;3.30;;
43807;SDS011;29438;50.664;10.098;2022-10-31T15:45:19;14.93;;;6.38;;
43807;SDS011;29438;50.664;10.098;2022-10-31T15:47:52;17.20;;;7.80;;
43807;SDS011;29438;50.664;10.098;2022-10-31T15:53:03;25.65;;;10.85;;
43807;SDS011;29438;50.664;10.098;2022-10-31T15:55:32;23.98;;;8.63;;
43807;SDS011;29438;50.664;10.098;2022-10-31T15:58:04;21.85;;;9.30;;
43807;SDS011;29438;50.664;10.098;2022-10-31T16:05:44;10.98;;;4.88;;
43807;SDS011;29438;50.664;10.098;2022-10-31T16:08:21;8.75;;;4.10;;
43807;SDS011;29438;50.664;10.098;2022-10-31T16:11:00;9.48;;;3.33;;
43807;SDS011;29438;50.664;10.098;2022-10-31T16:13:38;9.85;;;3.40;;
43807;SDS011;29438;50.664;10.098;2022-10-31T16:16:13;13.57;;;4.28;;
43807;SDS011;29438;50.664;10.098;2022-10-31T16:18:41;10.93;;;3.85;;
43807;SDS011;29438;50.664;10.098;2022-10-31T16:21:07;10.88;;;3.90;;
43807;SDS011;29438;50.664;10.098;2022-10-31T16:23:34;7.72;;;3.40;;
43807;SDS011;29438;50.664;10.098;2022-10-31T16:26:05;6.50;;;3.15;;
43807;SDS011;29438;50.664;10.098;2022-10-31T16:28:32;7.55;;;3.08;;
43807;SDS011;29438;50.664;10.098;2022-10-31T16:30:59;8.65;;;2.67;;
43807;SDS011;29438;50.664;10.098;2022-10-31T16:33:29;8.13;;;3.17;;
43807;SDS011;29438;50.664;10.098;2022-10-31T16:36:01;15.40;;;5.03;;
43807;SDS011;29438;50.664;10.098;2022-10-31T16:38:52;17.13;;;6.50;;
43807;SDS011;29438;50.664;10.098;2022-10-31T16:41:21;16.42;;;7.10;;
43807;SDS011;29438;50.664;10.098;2022-10-31T16:43:48;23.35;;;9.23;;
43807;SDS011;29438;50.664;10.098;2022-10-31T16:46:15;24.70;;;9.82;;
43807;SDS011;29438;50.664;10.098;2022-10-31T16:48:46;16.10;;;8.05;;
43807;SDS011;29438;50.664;10.098;2022-10-31T16:51:11;13.18;;;5.45;;
43807;SDS011;29438;50.664;10.098;2022-10-31T16:53:37;12.00;;;5.43;;
43807;SDS011;29438;50.664;10.098;2022-10-31T16:56:03;13.18;;;6.47;;
43807;SDS011;29438;50.664;10.098;2022-10-31T16:58:29;12.38;;;6.18;;
43807;SDS011;29438;50.664;10.098;2022-10-31T17:00:57;12.23;;;6.63;;